createdAt,value
2023-02-06T00:00:56.856Z,5.97
2023-02-06T00:03:58.832Z,4.82
2023-02-06T00:07:00.818Z,3.17
2023-02-06T00:10:02.801Z,3.87
2023-02-06T00:13:04.785Z,3.28
2023-02-06T00:16:14.968Z,4.82
2023-02-06T00:19:17.003Z,7.72
2023-02-06T00:22:19.052Z,5.07
2023-02-06T00:25:21.053Z,3.67
2023-02-06T00:28:23.075Z,4.35
2023-02-06T00:31:25.159Z,3.20
2023-02-06T00:34:27.202Z,4.13
2023-02-06T00:37:29.197Z,3.22
2023-02-06T00:40:31.245Z,5.20
2023-02-06T00:43:33.275Z,3.45
2023-02-06T00:46:35.335Z,4.50
2023-02-06T00:49:37.325Z,4.38
2023-02-06T00:52:39.337Z,4.65
2023-02-06T00:55:41.446Z,2.85
2023-02-06T00:58:43.451Z,5.35
2023-02-06T01:01:46.596Z,3.00
2023-02-06T01:04:48.649Z,3.75
2023-02-06T01:07:50.795Z,3.53
2023-02-06T01:10:53.178Z,4.57
2023-02-06T01:13:55.215Z,3.78
2023-02-06T01:16:57.256Z,4.50
2023-02-06T01:19:59.368Z,4.65
2023-02-06T01:23:01.368Z,4.20
2023-02-06T01:26:10.344Z,5.85
2023-02-06T01:29:12.383Z,4.90
2023-02-06T01:32:15.747Z,4.60
2023-02-06T01:35:17.805Z,4.78
2023-02-06T01:38:19.804Z,5.90
2023-02-06T01:41:22.837Z,2.67
2023-02-06T01:44:26.360Z,2.35
2023-02-06T01:47:29.294Z,3.17
2023-02-06T01:50:32.826Z,5.40
2023-02-06T01:53:35.215Z,7.60
2023-02-06T01:56:41.502Z,3.80
2023-02-06T01:59:46.383Z,4.72
2023-02-06T02:02:49.305Z,4.20
2023-02-06T02:05:52.038Z,3.38
2023-02-06T02:08:58.172Z,5.32
2023-02-06T02:12:00.567Z,3.50
2023-02-06T02:15:02.748Z,2.33
2023-02-06T02:18:20.601Z,4.15
2023-02-06T02:21:40.890Z,4.28
2023-02-06T02:24:42.901Z,5.20
2023-02-06T02:27:44.976Z,4.90
2023-02-06T02:30:50.004Z,3.38
2023-02-06T02:34:00.962Z,4.50
2023-02-06T02:37:15.058Z,6.03
2023-02-06T02:40:26.502Z,5.38
2023-02-06T02:43:31.670Z,5.30
2023-02-06T02:46:38.779Z,5.97
2023-02-06T02:49:43.107Z,4.43
2023-02-06T02:52:45.747Z,3.97
2023-02-06T02:55:47.749Z,4.90
2023-02-06T02:58:55.183Z,6.97
2023-02-06T03:02:03.203Z,4.50
2023-02-06T03:05:07.014Z,5.10
2023-02-06T03:08:28.962Z,5.28
2023-02-06T03:11:31.760Z,5.97
2023-02-06T03:14:40.451Z,3.40
2023-02-06T03:17:46.414Z,3.28
2023-02-06T03:20:49.934Z,4.47
2023-02-06T03:23:54.487Z,5.10
2023-02-06T03:26:59.038Z,5.60
2023-02-06T03:30:02.010Z,5.88
2023-02-06T03:33:06.244Z,5.80
2023-02-06T03:36:11.201Z,5.13
2023-02-06T03:39:13.325Z,3.38
2023-02-06T03:42:16.364Z,4.97
2023-02-06T03:45:26.450Z,4.80
2023-02-06T03:48:36.084Z,5.40
2023-02-06T03:51:46.722Z,3.42
2023-02-06T03:54:51.776Z,5.85
2023-02-06T03:58:05.719Z,5.35
2023-02-06T04:01:08.098Z,6.38
2023-02-06T04:04:10.091Z,6.45
2023-02-06T04:07:12.930Z,6.47
2023-02-06T04:10:14.939Z,5.97
2023-02-06T04:13:16.988Z,3.63
2023-02-06T04:16:18.991Z,5.93
2023-02-06T04:19:21.038Z,3.25
2023-02-06T04:22:23.050Z,4.80
2023-02-06T04:25:25.385Z,5.25
2023-02-06T04:28:27.592Z,6.57
2023-02-06T04:31:29.850Z,7.90
2023-02-06T04:34:35.512Z,4.63
2023-02-06T04:37:37.829Z,5.77
2023-02-06T04:40:39.885Z,3.13
2023-02-06T04:43:41.840Z,4.93
2023-02-06T04:46:43.963Z,4.90
2023-02-06T04:49:46.080Z,3.08
2023-02-06T04:52:48.142Z,3.63
2023-02-06T04:55:50.276Z,4.28
2023-02-06T04:58:52.286Z,5.88
2023-02-06T05:01:54.345Z,4.32
2023-02-06T05:04:56.277Z,6.00
2023-02-06T05:07:58.253Z,3.73
2023-02-06T05:11:00.354Z,5.38
2023-02-06T05:14:02.429Z,4.15
2023-02-06T05:17:04.429Z,3.80
2023-02-06T05:20:06.751Z,4.50
2023-02-06T05:23:08.764Z,4.28
2023-02-06T05:26:10.786Z,6.82
2023-02-06T05:29:12.790Z,6.95
2023-02-06T05:32:14.814Z,3.15
2023-02-06T05:35:16.914Z,4.40
2023-02-06T05:38:19.103Z,2.77
2023-02-06T05:41:21.195Z,3.67
2023-02-06T05:44:23.170Z,3.90
2023-02-06T05:47:26.064Z,3.10
2023-02-06T05:50:28.110Z,4.25
2023-02-06T05:53:30.174Z,4.80
2023-02-06T05:56:32.178Z,4.72
2023-02-06T05:59:34.197Z,3.70
2023-02-06T06:02:36.381Z,5.57
2023-02-06T06:05:38.668Z,6.82
2023-02-06T06:08:40.886Z,3.13
2023-02-06T06:11:42.906Z,4.70
2023-02-06T06:14:44.937Z,4.72
2023-02-06T06:17:46.980Z,6.53
2023-02-06T06:20:49.098Z,4.82
2023-02-06T06:23:51.212Z,4.28
2023-02-06T06:26:53.385Z,5.10
2023-02-06T06:29:55.661Z,4.90
2023-02-06T06:32:57.954Z,5.28
2023-02-06T06:36:00.296Z,6.75
2023-02-06T06:39:02.408Z,6.50
2023-02-06T06:42:04.590Z,6.57
2023-02-06T06:45:07.107Z,3.92
2023-02-06T06:48:09.248Z,6.00
2023-02-06T06:51:11.295Z,5.65
2023-02-06T06:54:14.589Z,3.40
2023-02-06T06:57:16.724Z,5.65
2023-02-06T07:00:19.135Z,6.72
2023-02-06T07:03:21.304Z,6.80
2023-02-06T07:06:23.459Z,5.53
2023-02-06T07:09:26.045Z,6.80
2023-02-06T07:12:28.424Z,4.07
2023-02-06T07:15:30.639Z,7.38
2023-02-06T07:18:32.934Z,4.93
2023-02-06T07:21:35.030Z,4.63
2023-02-06T07:24:37.133Z,6.35
2023-02-06T07:27:39.267Z,5.22
2023-02-06T07:30:41.336Z,4.53
2023-02-06T07:33:43.636Z,5.63
2023-02-06T07:36:45.707Z,4.68
2023-02-06T07:39:47.749Z,5.30
2023-02-06T07:42:49.909Z,3.60
2023-02-06T07:46:00.345Z,4.43
2023-02-06T07:49:02.908Z,4.37
2023-02-06T07:52:05.301Z,3.40
2023-02-06T07:55:07.936Z,5.78
2023-02-06T07:58:12.332Z,5.75
2023-02-06T08:01:14.792Z,6.95
2023-02-06T08:04:17.098Z,6.60
2023-02-06T08:07:19.310Z,6.63
2023-02-06T08:10:21.400Z,6.37
2023-02-06T08:13:23.710Z,7.13
2023-02-06T08:16:25.804Z,7.43
2023-02-06T08:19:27.860Z,6.57
2023-02-06T08:22:30.149Z,6.65
2023-02-06T08:25:32.249Z,5.28
2023-02-06T08:28:37.630Z,5.50
2023-02-06T08:31:40.680Z,5.55
2023-02-06T08:34:42.921Z,8.32
2023-02-06T08:37:45.128Z,5.70
2023-02-06T08:40:48.128Z,4.70
2023-02-06T08:43:57.356Z,7.20
2023-02-06T08:47:09.763Z,8.00
2023-02-06T08:50:12.871Z,6.50
2023-02-06T08:53:15.320Z,6.18
2023-02-06T08:56:17.377Z,6.85
2023-02-06T08:59:24.633Z,7.13
2023-02-06T09:02:27.322Z,6.65
2023-02-06T09:05:29.727Z,5.68
2023-02-06T09:08:32.133Z,7.25
2023-02-06T09:11:34.691Z,6.77
2023-02-06T09:14:36.956Z,6.30
2023-02-06T09:17:39.074Z,6.22
2023-02-06T09:20:41.318Z,7.13
2023-02-06T09:23:45.237Z,6.28
2023-02-06T09:26:59.464Z,5.88
2023-02-06T09:30:02.277Z,7.93
2023-02-06T09:33:04.377Z,7.30
2023-02-06T09:36:09.714Z,8.45
2023-02-06T09:39:11.949Z,4.13
2023-02-06T09:42:19.570Z,7.37
2023-02-06T09:45:22.812Z,6.78
2023-02-06T09:48:26.430Z,8.02
2023-02-06T09:51:40.207Z,8.07
2023-02-06T09:54:46.355Z,9.75
2023-02-06T09:57:57.695Z,7.80
2023-02-06T10:01:10.664Z,7.60
2023-02-06T10:04:31.615Z,8.63
2023-02-06T10:07:53.513Z,7.40
2023-02-06T10:10:56.718Z,7.53
2023-02-06T10:14:00.542Z,6.97
2023-02-06T10:17:04.481Z,8.10
2023-02-06T10:20:18.423Z,7.20
2023-02-06T10:23:27.170Z,7.15
2023-02-06T10:26:29.375Z,8.77
2023-02-06T10:29:32.954Z,7.53
2023-02-06T10:32:38.678Z,7.07
2023-02-06T10:35:53.419Z,6.70
2023-02-06T10:39:14.244Z,6.50
2023-02-06T10:42:22.900Z,6.00
2023-02-06T10:45:43.691Z,5.90
2023-02-06T10:49:08.746Z,6.72
2023-02-06T10:52:27.678Z,7.07
2023-02-06T10:55:35.273Z,5.65
2023-02-06T10:58:40.159Z,5.80
2023-02-06T11:01:43.750Z,6.22
2023-02-06T11:04:51.970Z,7.50
2023-02-06T11:08:07.979Z,6.38
2023-02-06T11:11:20.222Z,6.30
2023-02-06T11:14:24.209Z,6.77
2023-02-06T11:17:28.517Z,6.88
2023-02-06T11:20:33.513Z,6.75
2023-02-06T11:23:35.690Z,6.93
2023-02-06T11:26:42.105Z,7.83
2023-02-06T11:29:50.985Z,6.03
2023-02-06T11:33:04.421Z,6.13
2023-02-06T11:36:18.292Z,5.63
2023-02-06T11:39:22.429Z,8.50
2023-02-06T11:42:28.910Z,5.90
2023-02-06T11:45:32.854Z,5.50
2023-02-06T11:48:45.594Z,5.43
2023-02-06T11:52:00.885Z,5.47
2023-02-06T11:55:06.241Z,6.47
2023-02-06T11:58:14.272Z,5.32
2023-02-06T12:01:18.009Z,7.67
2023-02-06T12:04:39.682Z,6.35
2023-02-06T12:07:49.031Z,6.30
2023-02-06T12:10:59.814Z,8.18
2023-02-06T12:14:07.050Z,7.05
2023-02-06T12:17:15.316Z,7.65
2023-02-06T12:20:43.626Z,7.13
2023-02-06T12:24:14.918Z,5.63
2023-02-06T12:27:20.028Z,6.00
2023-02-06T12:30:34.235Z,6.15
2023-02-06T12:33:42.702Z,6.03
2023-02-06T12:37:10.811Z,5.55
2023-02-06T12:40:31.286Z,6.90
2023-02-06T12:43:35.169Z,5.57
2023-02-06T12:46:38.093Z,5.05
2023-02-06T12:50:00.428Z,6.00
2023-02-06T12:53:04.620Z,5.28
2023-02-06T12:56:06.651Z,5.93
2023-02-06T12:59:17.735Z,5.40
2023-02-06T13:02:28.884Z,7.73
2023-02-06T13:05:36.562Z,7.72
2023-02-06T13:08:45.265Z,5.72
2023-02-06T13:11:47.530Z,6.25
2023-02-06T13:14:57.592Z,5.97
2023-02-06T13:18:00.241Z,5.50
2023-02-06T13:21:36.863Z,7.68
2023-02-06T13:24:40.648Z,10.55
2023-02-06T13:27:42.830Z,5.20
2023-02-06T13:30:46.755Z,6.40
2023-02-06T13:33:59.007Z,6.63
2023-02-06T13:37:19.240Z,7.87
2023-02-06T13:40:24.155Z,7.57
2023-02-06T13:43:27.423Z,5.53
2023-02-06T13:46:47.930Z,6.68
2023-02-06T13:49:52.916Z,5.75
2023-02-06T13:53:10.084Z,5.95
2023-02-06T13:56:14.959Z,5.40
2023-02-06T13:59:39.333Z,5.65
2023-02-06T14:02:44.333Z,6.17
2023-02-06T14:05:51.102Z,6.22
2023-02-06T14:09:12.307Z,7.07
2023-02-06T14:12:35.698Z,6.35
2023-02-06T14:15:47.337Z,6.50
2023-02-06T14:18:55.430Z,7.07
2023-02-06T14:22:15.656Z,5.45
2023-02-06T14:25:36.080Z,7.17
2023-02-06T14:28:41.249Z,7.72
2023-02-06T14:31:46.050Z,6.20
2023-02-06T14:34:48.382Z,6.93
2023-02-06T14:37:50.509Z,7.65
2023-02-06T14:40:53.607Z,7.65
2023-02-06T14:43:55.866Z,5.88
2023-02-06T14:46:58.205Z,6.30
2023-02-06T14:50:01.085Z,5.43
2023-02-06T14:53:08.966Z,5.93
2023-02-06T14:56:37.083Z,5.67
2023-02-06T14:59:49.390Z,7.43
2023-02-06T15:03:10.270Z,6.97
2023-02-06T15:06:13.661Z,7.30
2023-02-06T15:09:24.837Z,8.88
2023-02-06T15:12:29.203Z,7.88
2023-02-06T15:15:32.857Z,8.45
2023-02-06T15:18:35.611Z,10.85
2023-02-06T15:21:38.374Z,7.55
2023-02-06T15:24:44.198Z,7.03
2023-02-06T15:27:46.258Z,5.37
2023-02-06T15:30:53.235Z,6.05
2023-02-06T15:33:56.983Z,5.35
2023-02-06T15:36:59.130Z,5.80
2023-02-06T15:40:12.872Z,6.85
2023-02-06T15:43:20.286Z,7.20
2023-02-06T15:46:22.875Z,6.80
2023-02-06T15:49:38.424Z,6.30
2023-02-06T15:52:43.118Z,7.35
2023-02-06T15:55:51.214Z,6.63
2023-02-06T15:59:00.358Z,6.60
2023-02-06T16:02:04.075Z,6.90
2023-02-06T16:05:06.573Z,6.93
2023-02-06T16:08:29.390Z,9.53
2023-02-06T16:11:50.697Z,6.65
2023-02-06T16:15:00.016Z,6.93
2023-02-06T16:18:17.798Z,6.13
2023-02-06T16:21:24.421Z,6.70
2023-02-06T16:24:27.985Z,8.55
2023-02-06T16:27:33.285Z,7.22
2023-02-06T16:30:36.586Z,6.80
2023-02-06T16:33:39.993Z,13.35
2023-02-06T16:36:42.000Z,9.93
2023-02-06T16:39:44.598Z,10.27
2023-02-06T16:42:49.506Z,9.45
2023-02-06T16:45:51.667Z,8.45
2023-02-06T16:48:54.514Z,10.68
2023-02-06T16:51:56.749Z,8.60
2023-02-06T16:54:59.350Z,9.27
2023-02-06T16:58:01.532Z,8.68
2023-02-06T17:01:03.616Z,7.13
2023-02-06T17:04:05.646Z,6.72
2023-02-06T17:07:15.019Z,7.28
2023-02-06T17:10:19.655Z,6.60
2023-02-06T17:13:22.709Z,5.95
2023-02-06T17:16:25.931Z,4.03
2023-02-06T17:19:27.938Z,5.93
2023-02-06T17:22:29.988Z,6.40
2023-02-06T17:25:32.531Z,6.82
2023-02-06T17:28:34.583Z,8.48
2023-02-06T17:31:36.630Z,7.93
2023-02-06T17:34:38.882Z,6.95
2023-02-06T17:37:40.915Z,6.55
2023-02-06T17:40:43.026Z,6.97
2023-02-06T17:43:45.056Z,6.82
2023-02-06T17:46:48.289Z,7.93
2023-02-06T17:49:50.846Z,7.68
2023-02-06T17:52:55.723Z,6.95
2023-02-06T17:55:57.965Z,7.68
2023-02-06T17:58:59.963Z,7.75
2023-02-06T18:02:02.177Z,7.23
2023-02-06T18:05:04.567Z,6.53
2023-02-06T18:08:06.611Z,8.43
2023-02-06T18:11:12.611Z,9.10
2023-02-06T18:14:14.656Z,8.68
2023-02-06T18:17:17.567Z,8.82
2023-02-06T18:20:19.631Z,9.23
2023-02-06T18:23:21.892Z,9.43
2023-02-06T18:26:24.406Z,10.77
2023-02-06T18:29:29.329Z,10.07
2023-02-06T18:32:34.755Z,9.93
2023-02-06T18:35:40.818Z,8.95
2023-02-06T18:38:43.033Z,8.63
2023-02-06T18:42:03.698Z,9.67
2023-02-06T18:45:05.770Z,12.82
2023-02-06T18:48:09.451Z,15.02
2023-02-06T18:51:11.723Z,13.25
2023-02-06T18:54:13.791Z,14.30
2023-02-06T18:57:15.872Z,13.57
2023-02-06T19:00:18.948Z,14.52
2023-02-06T19:03:21.217Z,11.27
2023-02-06T19:06:28.950Z,12.70
2023-02-06T19:09:30.964Z,13.43
2023-02-06T19:12:33.045Z,11.40
2023-02-06T19:15:36.076Z,11.60
2023-02-06T19:18:41.866Z,13.15
2023-02-06T19:21:44.641Z,10.82
2023-02-06T19:24:46.682Z,13.18
2023-02-06T19:27:48.717Z,15.25
2023-02-06T19:30:50.780Z,13.60
2023-02-06T19:33:54.726Z,10.70
2023-02-06T19:36:56.767Z,12.70
2023-02-06T19:39:58.821Z,11.38
2023-02-06T19:43:01.119Z,11.50
2023-02-06T19:46:04.553Z,10.52
2023-02-06T19:49:08.737Z,11.68
2023-02-06T19:52:12.158Z,11.85
2023-02-06T19:55:14.170Z,7.78
2023-02-06T19:58:16.247Z,11.13
2023-02-06T20:01:18.310Z,9.48
2023-02-06T20:04:21.535Z,10.67
2023-02-06T20:07:23.585Z,8.85
2023-02-06T20:10:26.098Z,9.38
2023-02-06T20:13:28.187Z,10.20
2023-02-06T20:16:31.701Z,8.00
2023-02-06T20:19:33.820Z,10.15
2023-02-06T20:22:35.991Z,8.27
2023-02-06T20:25:38.334Z,9.80
2023-02-06T20:28:40.302Z,9.43
2023-02-06T20:31:42.483Z,9.88
2023-02-06T20:34:44.565Z,9.10
2023-02-06T20:37:46.588Z,9.27
2023-02-06T20:40:51.770Z,9.00
2023-02-06T20:43:55.410Z,8.23
2023-02-06T20:46:57.491Z,8.23
2023-02-06T20:50:00.522Z,9.18
2023-02-06T20:53:02.532Z,8.40
2023-02-06T20:56:04.835Z,8.20
2023-02-06T20:59:07.495Z,9.23
2023-02-06T21:02:10.664Z,9.10
2023-02-06T21:05:12.716Z,7.60
2023-02-06T21:08:14.712Z,7.78
2023-02-06T21:11:17.186Z,9.57
2023-02-06T21:14:19.723Z,10.63
2023-02-06T21:17:21.772Z,7.43
2023-02-06T21:20:23.798Z,7.40
2023-02-06T21:23:25.763Z,8.93
2023-02-06T21:26:28.467Z,10.27
2023-02-06T21:29:30.455Z,10.82
2023-02-06T21:32:32.464Z,9.88
2023-02-06T21:35:34.463Z,4.17
2023-02-06T21:38:36.715Z,12.02
2023-02-06T21:41:38.784Z,9.93
2023-02-06T21:44:40.804Z,12.33
2023-02-06T21:47:42.851Z,10.93
2023-02-06T21:50:45.023Z,10.05
2023-02-06T21:53:48.244Z,6.78
2023-02-06T21:56:50.303Z,9.50
2023-02-06T21:59:52.314Z,10.95
2023-02-06T22:02:54.372Z,10.75
2023-02-06T22:06:01.139Z,9.10
2023-02-06T22:09:07.821Z,7.20
2023-02-06T22:12:09.901Z,8.75
2023-02-06T22:15:11.918Z,10.60
2023-02-06T22:18:13.917Z,7.13
2023-02-06T22:21:20.220Z,3.00
2023-02-06T22:24:22.260Z,7.53
2023-02-06T22:27:26.942Z,9.32
2023-02-06T22:30:28.913Z,9.07
2023-02-06T22:33:30.973Z,11.23
2023-02-06T22:36:33.574Z,8.97
2023-02-06T22:39:35.641Z,8.18
2023-02-06T22:42:37.767Z,9.23
2023-02-06T22:45:39.869Z,8.80
2023-02-06T22:48:41.990Z,7.22
2023-02-06T22:51:44.006Z,7.07
2023-02-06T22:54:45.996Z,10.30
2023-02-06T22:57:47.956Z,7.22
2023-02-06T23:00:50.073Z,6.82
2023-02-06T23:03:52.928Z,8.18
2023-02-06T23:06:55.465Z,6.60
2023-02-06T23:09:57.487Z,9.68
2023-02-06T23:12:59.496Z,8.13
2023-02-06T23:16:01.604Z,6.83
2023-02-06T23:19:05.346Z,8.02
2023-02-06T23:22:07.993Z,9.13
2023-02-06T23:25:10.233Z,7.95
2023-02-06T23:28:12.329Z,9.40
2023-02-06T23:31:14.612Z,9.77
2023-02-06T23:34:17.484Z,5.45
2023-02-06T23:37:19.491Z,8.53
2023-02-06T23:40:21.533Z,8.32
2023-02-06T23:43:23.655Z,5.72
2023-02-06T23:46:26.712Z,5.13
2023-02-06T23:49:28.708Z,6.95
2023-02-06T23:52:30.768Z,5.65
2023-02-06T23:55:33.029Z,5.28
2023-02-06T23:58:35.003Z,6.78
